Time;durP1;ratioP1;P1;durP2;ratioP2;P2;SDS_P1;SDS_P2;PMS_P1;PMS_P2;Temp;Humidity;BMP_temperature;BMP_pressure;BME280_temperature;BME280_humidity;BME280_pressure;Samples;Min_cycle;Max_cycle;Signal;HPM_P1;HPM_P2
2023/01/20 00:00:36;;;;;;;5.20;2.97;;;0.40;99.90;;;;;;5035103;28;20401;-74
2023/01/20 00:03:02;;;;;;;6.25;3.10;;;0.50;99.90;;;;;;5055555;28;20070;-74
2023/01/20 00:05:28;;;;;;;6.10;3.08;;;0.40;99.90;;;;;;5052930;28;20044;-74
2023/01/20 00:07:53;;;;;;;6.03;3.00;;;0.50;99.90;;;;;;5056939;28;20598;-74
2023/01/20 00:10:19;;;;;;;6.78;3.28;;;0.40;99.90;;;;;;5043355;28;20359;-74
2023/01/20 00:12:44;;;;;;;6.45;3.30;;;0.60;99.90;;;;;;5075412;28;20050;-74
2023/01/20 00:15:10;;;;;;;6.07;3.13;;;0.50;99.90;;;;;;5028945;28;20049;-74
2023/01/20 00:17:36;;;;;;;7.25;3.40;;;0.60;99.90;;;;;;5051069;28;20053;-74
2023/01/20 00:20:02;;;;;;;7.60;3.50;;;0.60;99.90;;;;;;5042254;28;20048;-74
2023/01/20 00:22:28;;;;;;;5.65;3.38;;;0.50;99.90;;;;;;5037675;28;20179;-74
2023/01/20 00:24:54;;;;;;;4.07;3.17;;;0.50;99.90;;;;;;5038943;28;20128;-74
2023/01/20 00:27:19;;;;;;;5.55;3.45;;;1.40;99.90;;;;;;5075387;28;20057;-74
2023/01/20 00:29:45;;;;;;;4.45;3.50;;;0.40;99.90;;;;;;5039179;28;20040;-74
2023/01/20 00:32:11;;;;;;;5.97;3.25;;;0.40;99.90;;;;;;5038271;28;21280;-74
2023/01/20 00:34:37;;;;;;;6.68;3.28;;;0.40;99.90;;;;;;5055239;28;20122;-76
2023/01/20 00:37:03;;;;;;;6.22;3.72;;;0.30;99.90;;;;;;5055374;28;20072;-74
2023/01/20 00:39:29;;;;;;;6.50;3.75;;;0.30;99.90;;;;;;5020620;28;20049;-74
2023/01/20 00:41:54;;;;;;;6.45;3.80;;;0.30;99.90;;;;;;5061163;28;20047;-74
2023/01/20 00:44:20;;;;;;;7.53;4.05;;;0.20;99.90;;;;;;5057033;28;20123;-74
2023/01/20 00:46:45;;;;;;;6.55;4.35;;;0.10;99.90;;;;;;5068734;28;20036;-74
2023/01/20 00:49:11;;;;;;;8.15;4.57;;;0.10;99.90;;;;;;5070165;28;20048;-74
2023/01/20 00:51:37;;;;;;;9.70;5.35;;;0.10;99.90;;;;;;5058995;28;20051;-74
2023/01/20 00:54:03;;;;;;;6.85;4.78;;;0.20;99.90;;;;;;5053605;28;20037;-74
2023/01/20 00:56:28;;;;;;;7.00;5.13;;;0.20;99.90;;;;;;5053928;28;20068;-74
2023/01/20 00:58:54;;;;;;;9.95;5.70;;;0.20;99.90;;;;;;5047851;28;20044;-74
2023/01/20 01:01:21;;;;;;;9.18;5.38;;;0.10;99.90;;;;;;5054960;28;20115;-74
2023/01/20 01:03:46;;;;;;;9.85;6.40;;;0.10;99.90;;;;;;5068256;28;20094;-74
2023/01/20 01:06:15;;;;;;;10.55;7.03;;;0.10;99.90;;;;;;5056739;28;20048;-74
2023/01/20 01:08:41;;;;;;;9.30;7.15;;;0.10;99.90;;;;;;5074584;28;20045;-74
2023/01/20 01:11:08;;;;;;;10.82;6.88;;;0.40;99.90;;;;;;5074948;28;20048;-74
2023/01/20 01:13:34;;;;;;;10.80;6.90;;;0.70;99.90;;;;;;5055125;28;20139;-74
2023/01/20 01:16:00;;;;;;;13.82;7.53;;;1.50;99.90;;;;;;5042591;28;20045;-74
2023/01/20 01:18:26;;;;;;;12.07;7.93;;;0.40;99.90;;;;;;5055584;28;20040;-74
2023/01/20 01:20:51;;;;;;;19.75;9.60;;;0.40;99.90;;;;;;5061662;28;20048;-74
2023/01/20 01:23:17;;;;;;;15.07;9.60;;;0.50;99.90;;;;;;5074257;28;20037;-75
2023/01/20 01:25:43;;;;;;;17.08;10.07;;;2.40;99.90;;;;;;5047592;28;20049;-74
2023/01/20 01:28:08;;;;;;;34.47;11.52;;;0.60;99.90;;;;;;5054742;28;20497;-74
2023/01/20 01:30:34;;;;;;;55.55;14.18;;;0.60;99.90;;;;;;5072729;28;20481;-74
2023/01/20 01:32:59;;;;;;;23.40;12.13;;;0.60;99.90;;;;;;5073539;28;20146;-74
2023/01/20 01:35:25;;;;;;;47.78;13.38;;;0.60;99.90;;;;;;5073781;28;20040;-74
2023/01/20 01:37:51;;;;;;;33.90;12.13;;;0.60;99.90;;;;;;5055671;28;20500;-74
2023/01/20 01:40:17;;;;;;;28.63;13.65;;;0.70;99.90;;;;;;5073759;28;20037;-74
2023/01/20 01:42:42;;;;;;;49.85;13.38;;;0.70;99.90;;;;;;5073830;28;20041;-74
2023/01/20 01:45:11;;;;;;;38.63;13.93;;;0.70;99.90;;;;;;5073803;28;20550;-74
2023/01/20 01:48:03;;;;;;;26.45;13.00;;;1.10;99.90;;;;;;5073383;28;20538;-75
2023/01/20 01:50:38;;;;;;;25.08;12.80;;;0.80;99.90;;;;;;5070722;28;20079;-74
2023/01/20 01:53:04;;;;;;;23.10;12.68;;;0.90;99.90;;;;;;5061149;28;20045;-74
2023/01/20 01:55:35;;;;;;;22.40;12.85;;;0.80;99.90;;;;;;5073485;28;20041;-74
2023/01/20 01:58:01;;;;;;;22.13;12.68;;;0.80;99.90;;;;;;5072814;28;20059;-74
2023/01/20 02:00:27;;;;;;;17.80;12.63;;;0.90;99.90;;;;;;5069358;28;20041;-74
2023/01/20 02:02:55;;;;;;;19.40;12.68;;;0.80;99.90;;;;;;5035229;28;20055;-74
2023/01/20 02:05:22;;;;;;;19.08;12.23;;;0.70;99.90;;;;;;5052240;28;20502;-74
2023/01/20 02:07:49;;;;;;;18.58;11.98;;;0.70;99.90;;;;;;5067584;28;20111;-73
2023/01/20 02:10:15;;;;;;;16.88;11.73;;;0.50;99.90;;;;;;5071579;28;20402;-74
2023/01/20 02:12:43;;;;;;;16.92;11.63;;;0.60;99.90;;;;;;5053374;28;20041;-74
2023/01/20 02:15:09;;;;;;;16.00;11.25;;;0.50;99.90;;;;;;5054426;28;20051;-75
2023/01/20 02:18:03;;;;;;;14.80;10.48;;;0.50;99.90;;;;;;5053314;28;20492;-75
2023/01/20 02:20:33;;;;;;;16.27;11.13;;;0.50;99.90;;;;;;5048728;28;20566;-74
2023/01/20 02:23:07;;;;;;;18.67;10.93;;;0.50;99.90;;;;;;5073006;28;20056;-74
2023/01/20 02:26:10;;;;;;;16.23;10.73;;;0.40;99.90;;;;;;5058197;28;20060;-74
2023/01/20 02:28:44;;;;;;;14.05;10.13;;;0.40;99.90;;;;;;5038075;28;20041;-74
2023/01/20 02:31:22;;;;;;;16.70;11.20;;;0.30;99.90;;;;;;5030141;28;20462;-74
2023/01/20 02:34:22;;;;;;;18.63;12.07;;;0.40;99.90;;;;;;5048532;28;20045;-74
2023/01/20 02:36:56;;;;;;;17.08;11.55;;;0.40;99.90;;;;;;5072838;28;20040;-74
2023/01/20 02:39:34;;;;;;;17.27;12.15;;;0.50;99.90;;;;;;5072924;28;20052;-74
2023/01/20 02:42:11;;;;;;;24.95;13.10;;;0.50;99.90;;;;;;5073155;28;20040;-74
2023/01/20 02:44:44;;;;;;;18.65;12.23;;;0.50;99.90;;;;;;5071227;28;20044;-75
2023/01/20 02:47:36;;;;;;;18.98;12.45;;;0.50;99.90;;;;;;5053807;28;20052;-74
2023/01/20 02:50:18;;;;;;;24.50;13.80;;;0.50;99.90;;;;;;5063642;28;20059;-74
2023/01/20 02:52:49;;;;;;;16.92;11.75;;;0.50;99.90;;;;;;5052948;28;20071;-74
2023/01/20 02:55:25;;;;;;;18.35;11.65;;;0.60;99.90;;;;;;5036251;28;20052;-74
2023/01/20 02:57:59;;;;;;;20.60;14.30;;;0.70;99.90;;;;;;5044024;28;20049;-74
2023/01/20 03:00:31;;;;;;;17.73;12.88;;;0.60;99.90;;;;;;5033601;28;20120;-75
2023/01/20 03:03:01;;;;;;;19.13;13.98;;;0.60;99.90;;;;;;5058054;28;20087;-74
2023/01/20 03:05:30;;;;;;;20.00;14.55;;;0.60;99.90;;;;;;5072777;28;20044;-74
2023/01/20 03:07:59;;;;;;;21.65;14.32;;;0.60;99.90;;;;;;5072812;28;20040;-75
2023/01/20 03:10:29;;;;;;;21.05;14.82;;;0.60;99.90;;;;;;5072808;28;20045;-75
2023/01/20 03:13:34;;;;;;;19.50;14.15;;;0.60;99.90;;;;;;5054940;28;20045;-74
2023/01/20 03:16:05;;;;;;;22.63;15.25;;;0.60;99.90;;;;;;5034531;28;20041;-74
2023/01/20 03:18:32;;;;;;;21.02;14.43;;;0.60;99.90;;;;;;5034645;28;20049;-74
2023/01/20 03:21:02;;;;;;;21.10;14.77;;;0.60;99.90;;;;;;5034702;28;20041;-74
2023/01/20 03:23:38;;;;;;;21.80;16.05;;;1.90;99.90;;;;;;5052646;28;20143;-74
2023/01/20 03:26:07;;;;;;;20.67;15.30;;;0.60;99.90;;;;;;5034870;28;20057;-74
2023/01/20 03:28:33;;;;;;;22.23;15.25;;;0.50;99.90;;;;;;5052841;28;20052;-75
2023/01/20 03:31:03;;;;;;;22.98;16.15;;;0.50;99.90;;;;;;5052277;28;20029;-75
2023/01/20 03:33:28;;;;;;;20.38;15.77;;;1.90;99.90;;;;;;5046156;28;20052;-75
2023/01/20 03:35:54;;;;;;;20.65;15.70;;;0.60;99.90;;;;;;5052971;28;20052;-75
2023/01/20 03:38:20;;;;;;;22.95;17.27;;;0.70;99.90;;;;;;5039125;28;20037;-75
2023/01/20 03:41:06;;;;;;;21.63;16.13;;;0.70;99.90;;;;;;5056398;28;20393;-75
2023/01/20 03:43:48;;;;;;;26.55;16.58;;;0.80;99.90;;;;;;5040462;28;20041;-75
2023/01/20 03:46:22;;;;;;;24.60;17.05;;;0.90;99.90;;;;;;5075766;28;20462;-75
2023/01/20 03:48:52;;;;;;;27.35;17.13;;;0.90;99.90;;;;;;5034007;28;20041;-75
2023/01/20 03:51:27;;;;;;;26.23;18.40;;;0.90;99.90;;;;;;5067186;28;20381;-75
2023/01/20 03:54:06;;;;;;;26.40;18.33;;;2.20;99.90;;;;;;5028860;28;20447;-75
2023/01/20 03:56:51;;;;;;;30.60;18.88;;;2.20;99.90;;;;;;5038156;28;20057;-75
2023/01/20 03:59:19;;;;;;;26.90;17.83;;;1.60;99.90;;;;;;5066390;28;20426;-75
2023/01/20 04:01:45;;;;;;;26.85;16.67;;;1.70;99.90;;;;;;5039598;28;20051;-75
2023/01/20 04:04:16;;;;;;;31.05;18.83;;;1.00;99.90;;;;;;5048408;28;20045;-75
2023/01/20 04:06:43;;;;;;;29.25;19.83;;;1.00;99.90;;;;;;5037964;28;20094;-75
2023/01/20 04:09:14;;;;;;;29.40;18.45;;;1.30;99.90;;;;;;5022400;28;20053;-76
2023/01/20 04:11:40;;;;;;;30.42;20.25;;;1.00;99.90;;;;;;5055866;28;20049;-75
2023/01/20 04:14:08;;;;;;;30.83;20.10;;;0.90;99.90;;;;;;5020551;28;20111;-75
2023/01/20 04:16:34;;;;;;;32.05;20.10;;;1.00;99.90;;;;;;5064383;28;20040;-75
2023/01/20 04:18:59;;;;;;;31.60;19.20;;;1.00;99.90;;;;;;5049033;28;20048;-75
2023/01/20 04:21:43;;;;;;;32.03;19.98;;;1.00;99.90;;;;;;5055556;28;20123;-75
2023/01/20 04:24:15;;;;;;;29.05;19.60;;;1.00;99.90;;;;;;5073164;28;20036;-75
2023/01/20 04:26:41;;;;;;;27.80;18.83;;;0.90;99.90;;;;;;5040231;28;20036;-75
2023/01/20 04:29:07;;;;;;;30.13;19.00;;;1.00;99.90;;;;;;5055459;28;20111;-75
2023/01/20 04:31:34;;;;;;;28.33;18.98;;;0.80;99.90;;;;;;5066693;28;20094;-75
2023/01/20 04:34:00;;;;;;;32.40;19.45;;;0.90;99.90;;;;;;5021718;28;20543;-75
2023/01/20 04:36:26;;;;;;;29.50;18.67;;;1.00;99.90;;;;;;5052621;28;20049;-75
2023/01/20 04:38:51;;;;;;;33.22;19.35;;;0.90;99.90;;;;;;5054164;28;20044;-75
2023/01/20 04:41:17;;;;;;;31.75;19.08;;;0.90;99.90;;;;;;5062712;28;20044;-75
2023/01/20 04:43:44;;;;;;;29.58;18.70;;;0.90;99.90;;;;;;5055100;28;20480;-75
2023/01/20 04:46:11;;;;;;;27.88;17.58;;;0.90;99.90;;;;;;5040405;28;20452;-75
2023/01/20 04:48:37;;;;;;;29.35;19.00;;;0.90;99.90;;;;;;5051675;28;20048;-75
2023/01/20 04:51:04;;;;;;;30.98;18.67;;;0.90;99.90;;;;;;5072397;28;20588;-75
2023/01/20 04:53:30;;;;;;;29.75;18.42;;;0.90;99.90;;;;;;5064608;28;20036;-75
2023/01/20 04:55:58;;;;;;;29.10;16.65;;;0.90;99.90;;;;;;5073262;28;20507;-75
2023/01/20 04:58:24;;;;;;;27.63;16.95;;;0.90;99.90;;;;;;5063558;28;20080;-75
2023/01/20 05:00:49;;;;;;;25.80;16.05;;;1.40;99.90;;;;;;5056843;28;20080;-75
2023/01/20 05:03:15;;;;;;;25.27;16.10;;;0.90;99.90;;;;;;5060559;28;20530;-75
2023/01/20 05:05:40;;;;;;;24.77;14.98;;;2.60;99.90;;;;;;5054588;28;20051;-75
2023/01/20 05:08:06;;;;;;;25.15;16.40;;;0.90;99.90;;;;;;5054437;28;20102;-75
2023/01/20 05:10:32;;;;;;;27.05;17.25;;;0.90;99.90;;;;;;5054700;28;20485;-75
2023/01/20 05:12:59;;;;;;;27.95;16.10;;;2.30;99.90;;;;;;5054442;28;20490;-75
2023/01/20 05:15:41;;;;;;;25.58;15.43;;;0.80;99.90;;;;;;5030200;28;20135;-75
2023/01/20 05:18:06;;;;;;;25.77;16.65;;;0.80;99.90;;;;;;5074355;28;20036;-75
2023/01/20 05:20:32;;;;;;;29.45;18.08;;;1.70;99.90;;;;;;5056625;28;20056;-75
2023/01/20 05:22:58;;;;;;;26.42;17.13;;;0.80;99.90;;;;;;5074055;28;20090;-75
2023/01/20 05:25:24;;;;;;;26.50;16.92;;;0.70;99.90;;;;;;5074010;28;20048;-75
2023/01/20 05:27:50;;;;;;;27.70;16.13;;;0.80;99.90;;;;;;5074328;28;20488;-75
2023/01/20 05:30:15;;;;;;;28.33;16.00;;;1.90;99.90;;;;;;5073374;28;20144;-75
2023/01/20 05:32:43;;;;;;;27.50;17.50;;;1.20;99.90;;;;;;5073577;28;20200;-74
2023/01/20 05:35:09;;;;;;;29.88;17.02;;;0.80;99.90;;;;;;5038657;28;20052;-75
2023/01/20 05:37:34;;;;;;;28.73;17.13;;;0.80;99.90;;;;;;5066132;28;20387;-75
2023/01/20 05:40:00;;;;;;;27.77;17.23;;;0.80;99.90;;;;;;5053956;28;20045;-75
2023/01/20 05:42:26;;;;;;;23.67;14.98;;;0.80;99.90;;;;;;5037140;28;20504;-75
2023/01/20 05:44:51;;;;;;;26.00;15.43;;;0.80;99.90;;;;;;5035520;28;20037;-75
2023/01/20 05:47:17;;;;;;;29.20;16.95;;;2.20;99.90;;;;;;5070425;28;20049;-74
2023/01/20 05:49:43;;;;;;;25.92;17.23;;;1.20;99.90;;;;;;5053893;28;20045;-75
2023/01/20 05:52:08;;;;;;;27.92;17.45;;;0.70;99.90;;;;;;5047711;28;20052;-74
2023/01/20 05:54:34;;;;;;;27.15;17.15;;;1.80;99.90;;;;;;5055790;28;20032;-73
2023/01/20 05:57:00;;;;;;;25.67;16.02;;;0.70;99.90;;;;;;5072279;28;20485;-73
2023/01/20 05:59:25;;;;;;;28.20;17.45;;;0.70;99.90;;;;;;5047505;28;20040;-73
2023/01/20 06:01:51;;;;;;;28.58;17.50;;;0.70;99.90;;;;;;5068407;28;20044;-73
2023/01/20 06:04:17;;;;;;;25.33;16.10;;;0.70;99.90;;;;;;5072033;28;20032;-73
2023/01/20 06:06:42;;;;;;;25.40;16.65;;;0.80;99.90;;;;;;5057955;28;20086;-73
2023/01/20 06:09:09;;;;;;;27.50;16.95;;;0.80;99.90;;;;;;5057422;28;20052;-73
2023/01/20 06:11:35;;;;;;;30.27;17.58;;;0.70;99.90;;;;;;5051578;28;20079;-74
2023/01/20 06:14:01;;;;;;;28.98;18.05;;;0.70;99.90;;;;;;5053022;28;20138;-74
2023/01/20 06:16:28;;;;;;;28.45;17.83;;;0.70;99.90;;;;;;5063049;28;20477;-74
2023/01/20 06:18:54;;;;;;;31.77;18.00;;;0.70;99.90;;;;;;5073193;28;20055;-74
2023/01/20 06:21:20;;;;;;;32.65;18.75;;;2.10;99.90;;;;;;5067528;28;20337;-74
2023/01/20 06:23:46;;;;;;;32.38;18.83;;;0.80;99.90;;;;;;5052961;28;20051;-74
2023/01/20 06:26:13;;;;;;;29.65;18.67;;;0.80;99.90;;;;;;5043571;28;20079;-73
2023/01/20 06:28:39;;;;;;;29.65;17.70;;;0.80;99.90;;;;;;5071490;28;20044;-74
2023/01/20 06:31:15;;;;;;;30.27;18.70;;;0.90;99.90;;;;;;5064896;28;20045;-74
2023/01/20 06:33:41;;;;;;;31.20;19.20;;;0.90;99.90;;;;;;5053154;28;20041;-78
2023/01/20 06:36:09;;;;;;;33.67;18.83;;;0.80;99.90;;;;;;5051391;28;20119;-78
2023/01/20 06:38:35;;;;;;;31.65;19.65;;;0.80;99.90;;;;;;5038272;28;20051;-78
2023/01/20 06:41:03;;;;;;;34.83;19.92;;;0.80;99.90;;;;;;5055036;28;20045;-79
2023/01/20 06:43:31;;;;;;;32.75;19.60;;;1.70;99.90;;;;;;5072775;28;20082;-78
2023/01/20 06:46:01;;;;;;;33.53;19.52;;;0.80;99.90;;;;;;5036849;28;20048;-79
2023/01/20 06:48:28;;;;;;;32.85;20.13;;;;;;;;;;5062877;28;20052;-79
2023/01/20 06:51:03;;;;;;;29.48;18.20;;;0.80;99.90;;;;;;5035134;28;20516;-79
2023/01/20 06:53:29;;;;;;;31.30;19.45;;;0.80;99.90;;;;;;5051570;28;20133;-79
2023/01/20 06:55:57;;;;;;;32.03;19.95;;;-0.40;99.90;;;;;;5054651;28;20041;-80
2023/01/20 06:58:28;;;;;;;29.83;17.58;;;2.70;99.90;;;;;;5034776;28;20512;-79
2023/01/20 07:00:55;;;;;;;32.58;19.92;;;1.70;99.90;;;;;;5018074;28;20056;-79
2023/01/20 07:03:21;;;;;;;29.20;16.80;;;1.50;99.90;;;;;;5034513;28;20490;-79
2023/01/20 07:05:59;;;;;;;32.30;19.27;;;0.90;99.90;;;;;;5052466;28;20187;-79
2023/01/20 07:08:24;;;;;;;30.77;19.00;;;0.90;99.90;;;;;;5052434;28;20049;-79
2023/01/20 07:10:50;;;;;;;28.75;17.90;;;0.90;99.90;;;;;;5055801;28;20035;-79
2023/01/20 07:13:16;;;;;;;32.95;19.17;;;1.00;99.90;;;;;;5038417;28;20142;-77
2023/01/20 07:15:41;;;;;;;31.08;19.02;;;2.40;99.90;;;;;;5039768;28;20051;-79
2023/01/20 07:18:07;;;;;;;31.08;19.25;;;2.30;99.90;;;;;;5056474;28;20051;-79
2023/01/20 07:20:33;;;;;;;30.83;18.63;;;2.10;99.90;;;;;;5038489;28;20093;-79
2023/01/20 07:22:59;;;;;;;35.30;20.05;;;0.90;99.90;;;;;;5057170;28;20439;-79
2023/01/20 07:25:25;;;;;;;32.60;19.83;;;0.80;99.90;;;;;;5021269;28;20041;-79
2023/01/20 07:27:52;;;;;;;32.33;19.50;;;0.90;99.90;;;;;;5056214;28;20501;-79
2023/01/20 07:30:17;;;;;;;30.25;18.65;;;2.50;99.90;;;;;;5068796;28;20032;-80
2023/01/20 07:32:43;;;;;;;32.15;20.27;;;0.80;99.90;;;;;;5058337;28;20573;-79
2023/01/20 07:35:09;;;;;;;30.60;18.65;;;0.80;99.90;;;;;;5075987;28;20123;-80
2023/01/20 07:37:34;;;;;;;33.42;19.95;;;0.90;99.90;;;;;;5074264;28;20546;-79
2023/01/20 07:40:00;;;;;;;31.88;18.10;;;0.80;99.90;;;;;;5045804;28;20037;-79
2023/01/20 07:42:26;;;;;;;38.28;22.13;;;0.80;99.90;;;;;;5075292;28;20089;-79
2023/01/20 07:44:55;;;;;;;33.88;21.25;;;1.30;99.90;;;;;;5043559;28;20511;-80
2023/01/20 07:47:21;;;;;;;33.28;20.92;;;0.80;99.90;;;;;;5036631;28;20127;-80
2023/01/20 07:49:46;;;;;;;34.50;21.02;;;0.70;99.90;;;;;;5052947;28;20041;-79
2023/01/20 07:52:12;;;;;;;31.98;20.45;;;2.30;99.90;;;;;;5038325;28;20045;-80
2023/01/20 07:54:37;;;;;;;35.75;21.02;;;0.90;99.90;;;;;;5056001;28;20068;-81
2023/01/20 07:57:03;;;;;;;31.83;19.15;;;1.00;99.90;;;;;;5068166;28;20056;-79
2023/01/20 07:59:29;;;;;;;33.78;19.60;;;1.00;99.90;;;;;;5075615;28;20033;-80
2023/01/20 08:01:54;;;;;;;33.38;20.55;;;1.00;99.90;;;;;;5075842;28;20111;-80
2023/01/20 08:04:20;;;;;;;34.63;18.85;;;1.00;99.90;;;;;;5074781;28;20064;-80
2023/01/20 08:06:46;;;;;;;36.75;22.25;;;1.00;99.90;;;;;;5075703;28;20053;-79
2023/01/20 08:09:13;;;;;;;35.25;21.88;;;1.00;99.90;;;;;;5057246;28;20040;-80
2023/01/20 08:11:39;;;;;;;37.25;21.45;;;1.00;99.90;;;;;;5057241;28;20074;-80
2023/01/20 08:14:05;;;;;;;36.15;22.48;;;2.60;99.90;;;;;;5064917;28;20045;-80
2023/01/20 08:16:30;;;;;;;40.85;23.67;;;1.00;99.90;;;;;;5055614;28;20110;-76
2023/01/20 08:18:56;;;;;;;35.80;22.98;;;1.00;99.90;;;;;;5047027;28;20037;-78
2023/01/20 08:21:30;;;;;;;39.20;23.25;;;1.00;99.90;;;;;;5046177;28;20037;-78
2023/01/20 08:24:01;;;;;;;37.75;21.58;;;1.00;99.90;;;;;;5056716;28;20039;-77
2023/01/20 08:26:28;;;;;;;39.72;23.77;;;1.10;99.90;;;;;;5062388;28;20052;-79
2023/01/20 08:28:59;;;;;;;41.65;23.42;;;1.00;99.90;;;;;;5051899;28;20076;-79
2023/01/20 08:31:26;;;;;;;38.50;22.42;;;1.00;99.90;;;;;;5020234;28;20163;-79
2023/01/20 08:33:53;;;;;;;38.72;23.40;;;1.00;99.90;;;;;;5052561;28;20041;-79
2023/01/20 08:36:23;;;;;;;36.78;22.10;;;2.70;99.90;;;;;;5037509;28;20052;-79
2023/01/20 08:38:49;;;;;;;35.08;20.45;;;1.10;99.90;;;;;;5054950;28;20086;-79
2023/01/20 08:41:27;;;;;;;40.03;23.27;;;1.10;99.90;;;;;;5055158;28;20048;-79
2023/01/20 08:43:53;;;;;;;37.63;23.30;;;1.20;99.90;;;;;;5055728;28;20496;-79
2023/01/20 08:46:20;;;;;;;35.15;22.20;;;1.20;99.90;;;;;;5036958;28;20045;-79
2023/01/20 08:48:47;;;;;;;35.97;22.98;;;1.20;99.90;;;;;;5065964;28;20056;-80
2023/01/20 08:51:19;;;;;;;38.47;23.52;;;2.10;99.90;;;;;;5055471;28;20041;-79
2023/01/20 08:53:45;;;;;;;36.10;22.02;;;1.20;99.90;;;;;;5071862;28;20048;-79
2023/01/20 08:56:12;;;;;;;38.65;23.38;;;1.30;99.90;;;;;;5057187;28;20037;-79
2023/01/20 08:58:38;;;;;;;37.88;22.33;;;1.20;99.90;;;;;;5074087;28;20043;-78
2023/01/20 09:01:13;;;;;;;39.60;23.60;;;1.30;99.90;;;;;;5031245;28;20469;-79
2023/01/20 09:03:39;;;;;;;37.38;22.73;;;1.40;99.90;;;;;;5053508;28;20109;-79
2023/01/20 09:06:06;;;;;;;37.70;22.45;;;1.40;99.90;;;;;;5070787;28;20041;-79
2023/01/20 09:08:31;;;;;;;40.45;22.95;;;1.40;99.90;;;;;;5019993;28;20044;-79
2023/01/20 09:11:09;;;;;;;39.47;22.80;;;1.40;99.90;;;;;;5054077;28;20041;-78
2023/01/20 09:13:35;;;;;;;42.00;24.23;;;1.50;99.90;;;;;;5019585;28;20099;-75
2023/01/20 09:16:00;;;;;;;44.47;24.08;;;1.50;99.90;;;;;;5054792;28;20413;-73
2023/01/20 09:18:26;;;;;;;37.33;23.25;;;1.50;99.90;;;;;;5056699;28;20385;-75
2023/01/20 09:20:52;;;;;;;43.13;25.02;;;1.40;99.90;;;;;;5074185;28;20450;-78
2023/01/20 09:23:18;;;;;;;42.08;23.48;;;1.50;99.90;;;;;;5074040;28;20193;-78
2023/01/20 09:25:43;;;;;;;39.28;22.95;;;1.40;99.90;;;;;;5061123;28;20118;-80
2023/01/20 09:28:10;;;;;;;38.80;23.55;;;1.50;99.90;;;;;;5073899;28;20067;-78
2023/01/20 09:30:36;;;;;;;38.20;22.48;;;1.60;99.90;;;;;;5051951;28;20413;-78
2023/01/20 09:33:02;;;;;;;42.60;23.65;;;2.80;99.90;;;;;;5046584;28;20041;-79
2023/01/20 09:35:28;;;;;;;42.72;23.90;;;1.50;99.90;;;;;;5055433;28;20045;-79
2023/01/20 09:44:26;;;;;;;42.72;23.80;;;1.60;99.90;;;;;;5048618;28;20458;-80
2023/01/20 09:47:18;;;;;;;41.17;24.75;;;1.50;99.90;;;;;;5036026;28;20049;-80
2023/01/20 09:53:25;;;;;;;43.27;24.87;;;1.60;99.90;;;;;;5027864;28;20060;-79
2023/01/20 09:56:00;;;;;;;39.80;22.92;;;1.70;99.90;;;;;;5035803;28;20502;-79
2023/01/20 09:58:48;;;;;;;40.03;23.90;;;2.10;99.90;;;;;;5054221;28;20098;-79
2023/01/20 10:01:36;;;;;;;39.85;23.77;;;1.70;99.90;;;;;;5036171;28;20088;-79
2023/01/20 10:04:07;;;;;;;40.47;24.27;;;1.80;99.90;;;;;;5019027;28;20053;-81
2023/01/20 10:06:50;;;;;;;38.72;23.73;;;1.80;99.90;;;;;;5019387;28;20128;-80
2023/01/20 10:09:37;;;;;;;42.35;24.58;;;1.80;99.90;;;;;;5018969;28;20072;-80
2023/01/20 10:12:11;;;;;;;38.38;21.65;;;1.90;99.90;;;;;;5042208;28;20056;-80
2023/01/20 10:14:51;;;;;;;39.17;23.58;;;1.90;99.90;;;;;;5035636;28;20056;-80
2023/01/20 10:17:25;;;;;;;40.97;22.92;;;3.50;99.90;;;;;;5053189;28;20037;-77
2023/01/20 10:20:11;;;;;;;40.97;24.25;;;1.90;99.90;;;;;;5045132;28;20105;-80
2023/01/20 10:22:43;;;;;;;42.10;24.30;;;3.00;99.90;;;;;;5040734;28;20044;-79
2023/01/20 10:25:21;;;;;;;42.50;24.02;;;3.40;99.90;;;;;;5035918;28;20087;-79
2023/01/20 10:28:12;;;;;;;44.80;23.25;;;1.70;99.90;;;;;;5045459;28;20059;-80
2023/01/20 10:30:38;;;;;;;42.78;23.38;;;1.80;99.90;;;;;;5008566;28;20505;-79
2023/01/20 10:33:31;;;;;;;41.90;23.65;;;1.70;99.90;;;;;;5039303;28;20036;-80
2023/01/20 10:35:59;;;;;;;43.05;23.75;;;1.80;99.90;;;;;;5044646;28;20129;-80
2023/01/20 10:38:39;;;;;;;46.97;24.05;;;1.70;99.90;;;;;;5059216;28;20556;-80
2023/01/20 10:41:15;;;;;;;41.58;23.30;;;3.20;99.90;;;;;;5054691;28;20049;-80
2023/01/20 10:43:41;;;;;;;42.85;24.23;;;1.90;99.90;;;;;;5072712;28;20374;-80
2023/01/20 10:46:21;;;;;;;41.83;23.85;;;1.90;99.90;;;;;;5054505;28;20083;-80
2023/01/20 10:49:16;;;;;;;40.25;22.90;;;2.80;99.90;;;;;;5068528;28;20044;-79
2023/01/20 10:52:11;;;;;;;42.63;23.38;;;1.90;99.90;;;;;;5030180;28;20053;-80
2023/01/20 10:54:53;;;;;;;41.20;21.23;;;1.90;99.90;;;;;;5050680;28;20075;-80
2023/01/20 10:57:19;;;;;;;43.90;23.55;;;3.50;99.90;;;;;;5031727;28;20049;-79
2023/01/20 10:59:49;;;;;;;41.30;22.75;;;1.90;99.90;;;;;;5052632;28;20037;-80
2023/01/20 11:02:17;;;;;;;43.63;23.05;;;1.90;99.90;;;;;;5043990;28;20132;-80
2023/01/20 11:04:47;;;;;;;44.35;24.58;;;1.90;99.90;;;;;;5066010;28;20102;-80
2023/01/20 11:07:17;;;;;;;41.17;21.35;;;1.80;99.90;;;;;;5034334;28;20061;-79
2023/01/20 11:09:45;;;;;;;42.92;22.40;;;3.00;99.90;;;;;;5059431;28;20120;-80
2023/01/20 11:12:18;;;;;;;44.95;23.83;;;3.60;99.90;;;;;;5034270;28;20189;-71
2023/01/20 11:14:45;;;;;;;42.05;23.35;;;1.90;99.90;;;;;;5068837;28;20097;-71
2023/01/20 11:17:19;;;;;;;44.85;24.77;;;1.80;99.90;;;;;;5069479;28;20041;-71
2023/01/20 11:19:52;;;;;;;42.67;22.88;;;1.80;99.90;;;;;;5069230;28;20048;-71
2023/01/20 11:22:32;;;;;;;45.40;23.67;;;1.80;99.90;;;;;;5051221;28;20097;-71
2023/01/20 11:25:00;;;;;;;46.60;23.33;;;1.90;99.90;;;;;;5063685;28;20033;-71
2023/01/20 11:27:30;;;;;;;41.95;23.00;;;1.90;99.90;;;;;;5014764;28;20047;-71
2023/01/20 11:29:59;;;;;;;42.20;23.52;;;1.80;99.90;;;;;;5049353;28;20045;-72
2023/01/20 11:32:35;;;;;;;41.72;22.80;;;1.70;99.90;;;;;;5042806;28;20052;-72
2023/01/20 11:35:19;;;;;;;44.65;23.35;;;1.70;99.90;;;;;;5045422;28;20045;-72
2023/01/20 11:37:45;;;;;;;41.00;23.38;;;3.50;99.90;;;;;;5050186;28;20036;-71
2023/01/20 11:40:25;;;;;;;41.90;21.85;;;2.80;99.90;;;;;;5049218;28;20119;-71
2023/01/20 11:42:53;;;;;;;42.63;22.25;;;1.70;99.90;;;;;;5031113;28;20066;-72
2023/01/20 11:45:27;;;;;;;41.95;21.85;;;1.70;99.90;;;;;;5029072;28;20045;-71
2023/01/20 11:48:15;;;;;;;38.20;20.90;;;1.70;99.90;;;;;;5034270;28;20061;-72
2023/01/20 11:50:53;;;;;;;37.90;20.88;;;1.70;99.90;;;;;;5026101;28;20052;-73
2023/01/20 11:53:26;;;;;;;40.20;21.13;;;1.70;99.90;;;;;;5030800;28;20068;-73
2023/01/20 11:56:03;;;;;;;39.95;21.52;;;1.70;99.90;;;;;;5048651;28;20041;-72
2023/01/20 11:58:53;;;;;;;41.15;21.58;;;1.80;99.90;;;;;;5051803;28;20052;-71
2023/01/20 12:01:25;;;;;;;36.40;20.17;;;1.70;99.90;;;;;;5035001;28;20424;-70
2023/01/20 12:04:26;;;;;;;36.90;20.48;;;1.70;99.90;;;;;;5042974;28;20067;-71
2023/01/20 12:06:54;;;;;;;36.60;19.90;;;1.70;99.90;;;;;;5036465;28;20405;-70
2023/01/20 12:09:26;;;;;;;38.85;20.95;;;1.70;99.90;;;;;;5072172;28;20048;-71
2023/01/20 12:11:55;;;;;;;37.97;19.77;;;1.70;99.90;;;;;;5037899;28;20044;-71
2023/01/20 12:14:35;;;;;;;36.22;19.38;;;1.70;99.90;;;;;;5053393;28;20070;-70
2023/01/20 12:17:19;;;;;;;39.65;20.65;;;1.80;99.90;;;;;;5053836;28;20405;-70
2023/01/20 12:20:16;;;;;;;40.83;20.67;;;1.80;99.90;;;;;;5051297;28;20040;-70
2023/01/20 12:23:20;;;;;;;38.60;21.40;;;1.80;99.90;;;;;;5037206;28;20079;-72
2023/01/20 12:25:51;;;;;;;37.03;20.40;;;1.80;99.90;;;;;;5067526;28;20232;-71
2023/01/20 12:28:20;;;;;;;41.88;21.08;;;1.90;99.90;;;;;;5053154;28;20051;-70
2023/01/20 12:30:57;;;;;;;40.05;20.30;;;1.90;99.90;;;;;;5052005;28;20090;-70
2023/01/20 12:33:38;;;;;;;42.78;21.15;;;2.00;99.90;;;;;;5051800;28;20066;-71
2023/01/20 12:36:28;;;;;;;39.08;21.65;;;1.90;99.90;;;;;;5071908;28;20040;-71
2023/01/20 12:39:12;;;;;;;39.55;21.67;;;1.90;99.90;;;;;;5072044;28;20040;-73
2023/01/20 12:41:41;;;;;;;42.85;21.73;;;2.40;99.90;;;;;;5066360;28;20452;-73
2023/01/20 12:44:22;;;;;;;39.72;19.63;;;2.90;99.90;;;;;;5053648;28;20044;-73
2023/01/20 12:47:13;;;;;;;39.85;20.27;;;1.90;99.90;;;;;;5066012;28;20079;-74
2023/01/20 12:49:49;;;;;;;38.00;20.60;;;1.90;99.90;;;;;;5066064;28;20040;-73
2023/01/20 12:52:35;;;;;;;42.17;19.92;;;2.30;99.90;;;;;;5038428;28;20051;-73
2023/01/20 12:55:41;;;;;;;40.28;21.08;;;1.80;99.90;;;;;;5068287;28;20115;-73
2023/01/20 12:58:16;;;;;;;37.70;19.63;;;1.90;99.90;;;;;;5052521;28;20131;-74
2023/01/20 13:01:03;;;;;;;38.45;18.52;;;1.90;99.90;;;;;;5070321;28;20048;-74
2023/01/20 13:03:54;;;;;;;36.45;18.50;;;1.90;99.90;;;;;;5060813;28;20040;-73
2023/01/20 13:06:44;;;;;;;37.78;19.05;;;3.00;99.90;;;;;;5054215;28;20062;-74